Monday, December 18, 2017, 5:22 PM EST
Back to Local

KLNS, Lancaster Airport

Location: Lititz, PA, United States Lat: 40.117
Local Time: 5:22 PM EST (22:22 GMT) Lon: -76.3
Time Zone: US/Eastern Elev: 403 ft

Show me the last for .
Show Decoded

2017-12-18 16:53 METAR KLNS 182153Z 21003KT 8SM OVC035 07/02 A2998 RMK AO2 SLP156 T00720022 =
2017-12-18 15:53 METAR KLNS 182053Z 27005KT 7SM OVC032 08/02 A3000 RMK AO2 SLP160 T00780022 55005
                 =
2017-12-18 14:53 METAR KLNS 181953Z 26007KT 8SM BKN045 08/02 A2998 RMK AO2 SLP156 T00780017 =
2017-12-18 13:53 METAR KLNS 181853Z 28007KT 7SM SCT049 08/02 A2999 RMK AO2 SLP160 T00780017 =
2017-12-18 12:53 METAR KLNS 181753Z 29005KT 6SM HZ OVC050 07/01 A3001 RMK AO2 SLP166 T00670011
                 10067 20006 58035 =
2017-12-18 11:53 METAR KLNS 181653Z 24003KT 6SM HZ OVC055 06/01 A3005 RMK AO2 SLP177 T00610011 =
2017-12-18 10:53 METAR KLNS 181553Z 00000KT 6SM HZ CLR 06/01 A3009 RMK AO2 SLP193 T00560011 =
2017-12-18 09:53 METAR KLNS 181453Z COR 00000KT 5SM HZ SCT050 BKN060 04/01 A3012 RMK AO2 SLP201
                 T00390006 51002 =
2017-12-18 08:53 METAR KLNS 181353Z 00000KT 5SM BR FEW050 OVC070 02/00 A3011 RMK AO2 SLP200
                 T00220000 =
2017-12-18 07:53 METAR KLNS 181253Z 27004KT 5SM BR BKN055 OVC070 01/M01 A3012 RMK AO2 SLP203
                 T00111006 =
2017-12-18 06:53 METAR KLNS 181153Z 00000KT 6SM BR BKN075 01/M01 A3011 RMK AO2 SLP199 T00061006
                 10022 20006 55007 =
2017-12-18 05:53 METAR KLNS 181053Z 09004KT 7SM OVC085 01/M01 A3010 RMK AO2 SLP196 T00061006 =
2017-12-18 04:53 METAR KLNS 180953Z AUTO 00000KT 7SM OVC060 02/00 A3012 RMK AO2 SLP203 T00170000
                 =
2017-12-18 03:53 METAR KLNS 180853Z AUTO 04004KT 7SM OVC065 02/M01 A3013 RMK AO2 SLP205 T00221006
                 56004 =
2017-12-18 02:53 METAR KLNS 180753Z AUTO 04004KT 8SM OVC070 02/M01 A3013 RMK AO2 SLP206 T00171006
                 =
2017-12-18 01:53 METAR KLNS 180653Z AUTO 04003KT 7SM OVC075 02/M01 A3013 RMK AO2 SLP206 T00171006
                 =
2017-12-18 00:53 METAR KLNS 180553Z AUTO 00000KT 7SM OVC080 02/M01 A3014 RMK AO2 SLP209 T00221006
                 10028 20017 56014 =
2017-12-17 23:53 METAR KLNS 180453Z AUTO 13003KT 7SM OVC090 02/M01 A3014 RMK AO2 SLP209 T00171006
                 400671033 =
2017-12-17 22:53 METAR KLNS 180353Z 08004KT 7SM OVC090 02/M01 A3015 RMK AO2 SLP213 T00221006 =
2017-12-17 21:53 METAR KLNS 180253Z 08004KT 7SM SCT055 BKN075 OVC090 02/M01 A3018 RMK AO2 SLP223
                 T00221006 58009 =
2017-12-17 20:53 METAR KLNS 180153Z 12003KT 7SM OVC055 02/M01 A3019 RMK AO2 SLP228 T00221006 =
2017-12-17 19:53 METAR KLNS 180053Z 05004KT 7SM SCT120 02/M01 A3020 RMK AO2 SLP230 T00221006 =
2017-12-17 18:53 METAR KLNS 172353Z 08004KT 8SM BKN110 02/M01 A3021 RMK AO2 SLP233 T00221006
                 10067 20017 50007 =
2017-12-17 17:53 METAR KLNS 172253Z 00000KT 7SM FEW120 03/M01 A3022 RMK AO2 SLP236 T00281006 =

Support USWX by starting your Amazon purchase here.